Parandowski — 9HA4641 — position and weather

sailwx.info

Track history (hours):
 
Tides and Currents Weather Stations Pressure Air Temp Water Temp Dewpoint Dewpoint Depression Visibility Wind Speed Wind Dir Waves Ship Positions

Parandowski

Last reported at 2017-Sep-24 21:56 UTC. Time now 2017-Oct-19 23:36 UTC.
Position N 29°21' W 094°47'.
Warning: this ship's position is 25 days out of date.

Length 200 m; draft 7.7 m.

Type: Ship. MMSI: 248403000.

Date/timePositionNaut miles runAvg speedWind from/ knotsBaromVisibWave heightAir tempDewpointWater temp
2017-Sep-24 21:56N 29°21' W 094°47'511.7
2017-Sep-24 21:31N 29°25' W 094°50'611.9
2017-Sep-24 21:01N 29°30' W 094°53'611.3
2017-Sep-24 20:30N 29°35' W 094°56'4 7.8
2017-Sep-24 20:01N 29°39' W 094°58'4 8.0
2017-Sep-24 19:30N 29°42' W 095°00'3 6.8
2017-Sep-24 19:00N 29°44' W 095°03'2 4.7
2017-Sep-24 18:31N 29°45' W 095°06'3 5.2
2017-Sep-24 18:01N 29°44' W 095°09'2 5.0
2017-Sep-24 17:30N 29°44' W 095°12'2 4.3
2017-Sep-24 17:01N 29°43' W 095°14'0 0.4
2017-Sep-24 16:30N 29°43' W 095°14'0 0.0
2017-Sep-24 16:00N 29°43' W 095°14'0 0.0
2017-Sep-24 15:27N 29°43' W 095°14'0 0.0
2017-Sep-24 15:00N 29°43' W 095°14'0 0.0
2017-Sep-24 14:30N 29°43' W 095°14'0 0.0
2017-Sep-24 14:00N 29°43' W 095°14'0 0.0
2017-Sep-24 13:27N 29°43' W 095°14'0 0.0
2017-Sep-24 13:00N 29°43' W 095°14'0 0.0
2017-Sep-24 12:30N 29°43' W 095°14'0 0.0
2017-Sep-24 12:00N 29°43' W 095°14'0 0.0
2017-Sep-24 11:30N 29°43' W 095°14'0 0.0
2017-Sep-24 11:00N 29°43' W 095°14'0 0.0
2017-Sep-24 10:30N 29°43' W 095°14'0 0.0
2017-Sep-24 10:00N 29°43' W 095°14'0 0.0
2017-Sep-24 09:30N 29°43' W 095°14'0 0.0
2017-Sep-24 08:57N 29°43' W 095°14'0 0.0
2017-Sep-24 08:30N 29°43' W 095°14'0 0.0
2017-Sep-24 08:00N 29°43' W 095°14'0 0.0
2017-Sep-24 07:30N 29°43' W 095°14'0 0.0
2017-Sep-24 07:00N 29°43' W 095°14'0 0.0
2017-Sep-24 06:30N 29°43' W 095°14'0 0.0
2017-Sep-24 05:51N 29°43' W 095°14'0 0.0
2017-Sep-24 05:30N 29°43' W 095°14'0 0.0
2017-Sep-24 05:00N 29°43' W 095°14'0 0.0
2017-Sep-24 04:30N 29°43' W 095°14'0 0.0
2017-Sep-24 04:00N 29°43' W 095°14'0 0.0
2017-Sep-24 03:24N 29°43' W 095°14'0 0.0
2017-Sep-24 03:00N 29°43' W 095°14'0 0.0
2017-Sep-24 02:27N 29°43' W 095°14'0 0.0
2017-Sep-24 02:00N 29°43' W 095°14'0 0.0
2017-Sep-24 01:30N 29°43' W 095°14'0 0.0
2017-Sep-24 00:54N 29°43' W 095°14'0 0.0
2017-Sep-24 00:30N 29°43' W 095°14'0 0.0
2017-Sep-23 23:57N 29°43' W 095°14'0 0.0
2017-Sep-23 23:30N 29°43' W 095°14'0 0.0
2017-Sep-23 22:54N 29°43' W 095°14'0 0.0
2017-Sep-23 22:30N 29°43' W 095°14'0 0.0
2017-Sep-23 22:00N 29°43' W 095°14'0 0.0
2017-Sep-23 21:30N 29°43' W 095°14'0 0.0
2017-Sep-23 21:00N 29°43' W 095°14'0 0.0
2017-Sep-23 20:27N 29°43' W 095°14'0 0.0
2017-Sep-23 20:00N 29°43' W 095°14'0 0.0
2017-Sep-22 01:58N 29°43' W 095°14'0 0.0
2017-Sep-22 01:28N 29°43' W 095°14'0 0.0
2017-Sep-22 00:55N 29°43' W 095°14'0 0.0
2017-Sep-22 00:22N 29°43' W 095°14'0 0.0
2017-Sep-21 23:58N 29°43' W 095°14'0 0.0
2017-Sep-21 23:25N 29°43' W 095°14'0 0.0
2017-Sep-21 22:58N 29°43' W 095°14'0 0.0
2017-Sep-21 22:28N 29°43' W 095°14'0 0.0
2017-Sep-21 21:58N 29°43' W 095°14'0 0.0
2017-Sep-21 21:28N 29°43' W 095°14'0 0.0
2017-Sep-21 20:58N 29°43' W 095°14'0 0.0
2017-Sep-21 20:28N 29°43' W 095°14'0 0.0
2017-Sep-21 19:58N 29°43' W 095°14'0 0.0
2017-Sep-21 19:28N 29°43' W 095°14'0 0.0
2017-Sep-21 18:58N 29°43' W 095°14'0 0.0
2017-Sep-21 18:28N 29°43' W 095°14'0 0.0
2017-Sep-21 17:58N 29°43' W 095°14'0 0.0
2017-Sep-21 17:28N 29°43' W 095°14'0 0.0
2017-Sep-21 16:58N 29°43' W 095°14'0 0.0
2017-Sep-21 16:28N 29°43' W 095°14'0 0.0
2017-Sep-21 15:58N 29°43' W 095°14'0 0.0
2017-Sep-21 15:22N 29°43' W 095°14'0 0.0
2017-Sep-21 14:58N 29°43' W 095°14'0 0.0
2017-Sep-21 14:28N 29°43' W 095°14'0 0.0
2017-Sep-21 13:58N 29°43' W 095°14'0 0.0
2017-Sep-21 13:28N 29°43' W 095°14'0 0.0
2017-Sep-21 12:55N 29°43' W 095°14'0 0.0
2017-Sep-21 12:25N 29°43' W 095°14'0 0.0
2017-Sep-21 11:59N 29°43' W 095°14'0 0.0
2017-Sep-21 11:31N 29°43' W 095°14'0 0.0
2017-Sep-21 10:59N 29°43' W 095°14'0 0.0
2017-Sep-21 10:26N 29°43' W 095°14'0 0.0
2017-Sep-21 09:59N 29°43' W 095°14'0 0.0
2017-Sep-21 09:29N 29°43' W 095°14'0 0.0
2017-Sep-21 08:59N 29°43' W 095°14'0 0.0
2017-Sep-21 08:28N 29°43' W 095°14'0 0.0
2017-Sep-21 08:00N 29°43' W 095°14'0 0.0
2017-Sep-21 07:30N 29°43' W 095°14'0 0.0
2017-Sep-21 06:57N 29°43' W 095°14'0 0.0
2017-Sep-21 06:30N 29°43' W 095°14'0 0.0
2017-Sep-21 05:56N 29°43' W 095°14'0 0.0
2017-Sep-21 05:28N 29°43' W 095°14'0 0.0
2017-Sep-21 04:55N 29°43' W 095°14'0 0.4
2017-Sep-21 04:29N 29°43' W 095°14'1 3.0
2017-Sep-21 04:00N 29°44' W 095°13'2 0.3
2017-Sep-20 20:20N 29°45' W 095°11'0 0.0
2017-Sep-20 19:11N 29°45' W 095°11'0 0.0
2017-Sep-20 18:47N 29°45' W 095°11'0 0.0
2017-Sep-20 18:23N 29°45' W 095°11'0 0.0
2017-Sep-20 17:44N 29°45' W 095°11'0 0.0
2017-Sep-20 15:47N 29°45' W 095°11'0 0.0
2017-Sep-20 14:41N 29°45' W 095°11'0 0.0
2017-Sep-20 13:56N 29°45' W 095°11'0 0.0
2017-Sep-20 11:59N 29°45' W 095°11'0 0.0
2017-Sep-20 10:32N 29°45' W 095°11'0 0.0
2017-Sep-20 10:26N 29°45' W 095°11'0 0.0
2017-Sep-20 09:56N 29°45' W 095°11'0 0.0
2017-Sep-20 07:32N 29°45' W 095°11'0 0.0
2017-Sep-20 07:23N 29°45' W 095°11'0 0.0
2017-Sep-20 06:35N 29°45' W 095°11'0 0.0
2017-Sep-20 06:05N 29°45' W 095°11'0 0.0
2017-Sep-20 03:17N 29°45' W 095°11'0 0.0
2017-Sep-20 02:41N 29°45' W 095°11'0 0.0
2017-Sep-20 02:11N 29°45' W 095°11'0 0.0
2017-Sep-20 01:53N 29°45' W 095°11'0 0.0
2017-Sep-19 21:35N 29°45' W 095°11'0 0.0
2017-Sep-19 17:41N 29°45' W 095°11'0 0.0
2017-Sep-19 17:29N 29°45' W 095°11'0 0.0
2017-Sep-19 16:56N 29°45' W 095°11'0 0.0
2017-Sep-19 16:29N 29°45' W 095°11'0 0.0
2017-Sep-19 15:56N 29°45' W 095°11'0 0.0
2017-Sep-19 15:29N 29°45' W 095°11'0 0.0
2017-Sep-19 14:50N 29°45' W 095°11'0 0.0
2017-Sep-19 10:59N 29°45' W 095°11'0 0.0
2017-Sep-19 05:23N 29°45' W 095°11'0 0.0
2017-Sep-19 04:56N 29°45' W 095°11'0 0.0
2017-Sep-19 03:41N 29°45' W 095°11'0 0.0
2017-Sep-19 03:23N 29°45' W 095°11'0 0.0
2017-Sep-19 02:59N 29°45' W 095°11'0 0.0
2017-Sep-19 02:29N 29°45' W 095°11'0 0.0
2017-Sep-19 01:59N 29°45' W 095°11'0 0.0
2017-Sep-19 01:20N 29°45' W 095°11'0 0.0
2017-Sep-19 00:59N 29°45' W 095°11'0 0.0
2017-Sep-19 00:29N 29°45' W 095°11'0 0.0
2017-Sep-18 23:59N 29°45' W 095°11'0 0.0
2017-Sep-18 23:20N 29°45' W 095°11'0 0.0
2017-Sep-18 22:59N 29°45' W 095°11'0 0.0
2017-Sep-18 22:17N 29°45' W 095°11'0 0.0
2017-Sep-18 21:59N 29°45' W 095°11'0 0.0
2017-Sep-18 21:29N 29°45' W 095°11'0 0.0
2017-Sep-18 20:59N 29°45' W 095°11'0 0.0
2017-Sep-18 20:29N 29°45' W 095°11'0 0.0
2017-Sep-18 19:50N 29°45' W 095°11'0 0.0
2017-Sep-18 19:26N 29°45' W 095°11'0 0.0
2017-Sep-18 18:53N 29°45' W 095°11'0 0.0
2017-Sep-18 18:23N 29°45' W 095°11'0 0.0
2017-Sep-18 17:56N 29°45' W 095°11'0 0.0
2017-Sep-18 17:23N 29°45' W 095°11'0 0.0
2017-Sep-18 16:59N 29°45' W 095°11'0 0.0
2017-Sep-18 16:26N 29°45' W 095°11'0 0.0
2017-Sep-18 15:59N 29°45' W 095°11'0 0.0
2017-Sep-18 15:29N 29°45' W 095°11'0 0.0
2017-Sep-18 14:59N 29°45' W 095°11'0 0.0
2017-Sep-18 14:29N 29°45' W 095°11'0 0.0
2017-Sep-18 09:06N 29°45' W 095°11'0 0.0
2017-Sep-18 08:48N 29°45' W 095°11'0 0.0
2017-Sep-18 08:24N 29°45' W 095°11'0 0.0
2017-Sep-18 08:00N 29°45' W 095°11'0 0.0
2017-Sep-18 07:28N 29°45' W 095°11'0 0.0
2017-Sep-18 06:49N 29°45' W 095°11'0 0.0
2017-Sep-18 04:48N 29°45' W 095°11'0 0.7
2017-Sep-18 04:30N 29°45' W 095°10'3 5.4
2017-Sep-18 04:00N 29°44' W 095°07'3 5.9
2017-Sep-18 03:29N 29°45' W 095°04'3 7.4
2017-Sep-18 03:00N 29°43' W 095°01'4 8.5
2017-Sep-18 02:30N 29°40' W 094°58'611.7
2017-Sep-18 02:01N 29°34' W 094°56'611.9
2017-Sep-18 01:31N 29°29' W 094°52'611.5
2017-Sep-18 01:01N 29°24' W 094°49'21 1.0
2017-Sep-17 03:18N 29°16' W 094°27'0 0.0
2017-Sep-17 02:57N 29°16' W 094°27'0 0.0
2017-Sep-17 02:24N 29°16' W 094°27'0 0.0
2017-Sep-17 01:54N 29°16' W 094°27'0 0.0
2017-Sep-17 01:27N 29°16' W 094°27'0 0.0
2017-Sep-17 00:57N 29°16' W 094°27'0 0.0
2017-Sep-16 06:06N 29°16' W 094°27'0 0.0
2017-Sep-16 05:45N 29°16' W 094°27'0 0.0
2017-Sep-16 05:30N 29°16' W 094°27'  
Track history (hours):
 
Tides and Currents Weather Stations Pressure Air Temp Water Temp Dewpoint Dewpoint Depression Visibility Wind Speed Wind Dir Waves Ship Positions

Parandowski

Last reported at 2017-Sep-24 21:56 UTC. Time now 2017-Oct-19 23:36 UTC.
Position N 29°21' W 094°47'.
Warning: this ship's position is 25 days out of date.

Length 200 m; draft 7.7 m.

Type: Ship. MMSI: 248403000.

Date/timePositionNaut miles runAvg speedWind from/ knotsBaromVisibWave heightAir tempDewpointWater temp
2017-Sep-24 21:56N 29°21' W 094°47'511.7
2017-Sep-24 21:31N 29°25' W 094°50'611.9
2017-Sep-24 21:01N 29°30' W 094°53'611.3
2017-Sep-24 20:30N 29°35' W 094°56'4 7.8
2017-Sep-24 20:01N 29°39' W 094°58'4 8.0
2017-Sep-24 19:30N 29°42' W 095°00'3 6.8
2017-Sep-24 19:00N 29°44' W 095°03'2 4.7
2017-Sep-24 18:31N 29°45' W 095°06'3 5.2
2017-Sep-24 18:01N 29°44' W 095°09'2 5.0
2017-Sep-24 17:30N 29°44' W 095°12'2 4.3
2017-Sep-24 17:01N 29°43' W 095°14'0 0.4
2017-Sep-24 16:30N 29°43' W 095°14'0 0.0
2017-Sep-24 16:00N 29°43' W 095°14'0 0.0
2017-Sep-24 15:27N 29°43' W 095°14'0 0.0
2017-Sep-24 15:00N 29°43' W 095°14'0 0.0
2017-Sep-24 14:30N 29°43' W 095°14'0 0.0
2017-Sep-24 14:00N 29°43' W 095°14'0 0.0
2017-Sep-24 13:27N 29°43' W 095°14'0 0.0
2017-Sep-24 13:00N 29°43' W 095°14'0 0.0
2017-Sep-24 12:30N 29°43' W 095°14'0 0.0
2017-Sep-24 12:00N 29°43' W 095°14'0 0.0
2017-Sep-24 11:30N 29°43' W 095°14'0 0.0
2017-Sep-24 11:00N 29°43' W 095°14'0 0.0
2017-Sep-24 10:30N 29°43' W 095°14'0 0.0
2017-Sep-24 10:00N 29°43' W 095°14'0 0.0
2017-Sep-24 09:30N 29°43' W 095°14'0 0.0
2017-Sep-24 08:57N 29°43' W 095°14'0 0.0
2017-Sep-24 08:30N 29°43' W 095°14'0 0.0
2017-Sep-24 08:00N 29°43' W 095°14'0 0.0
2017-Sep-24 07:30N 29°43' W 095°14'0 0.0
2017-Sep-24 07:00N 29°43' W 095°14'0 0.0
2017-Sep-24 06:30N 29°43' W 095°14'0 0.0
2017-Sep-24 05:51N 29°43' W 095°14'0 0.0
2017-Sep-24 05:30N 29°43' W 095°14'0 0.0
2017-Sep-24 05:00N 29°43' W 095°14'0 0.0
2017-Sep-24 04:30N 29°43' W 095°14'0 0.0
2017-Sep-24 04:00N 29°43' W 095°14'0 0.0
2017-Sep-24 03:24N 29°43' W 095°14'0 0.0
2017-Sep-24 03:00N 29°43' W 095°14'0 0.0
2017-Sep-24 02:27N 29°43' W 095°14'0 0.0
2017-Sep-24 02:00N 29°43' W 095°14'0 0.0
2017-Sep-24 01:30N 29°43' W 095°14'0 0.0
2017-Sep-24 00:54N 29°43' W 095°14'0 0.0
2017-Sep-24 00:30N 29°43' W 095°14'0 0.0
2017-Sep-23 23:57N 29°43' W 095°14'0 0.0
2017-Sep-23 23:30N 29°43' W 095°14'0 0.0
2017-Sep-23 22:54N 29°43' W 095°14'0 0.0
2017-Sep-23 22:30N 29°43' W 095°14'0 0.0
2017-Sep-23 22:00N 29°43' W 095°14'0 0.0
2017-Sep-23 21:30N 29°43' W 095°14'0 0.0
2017-Sep-23 21:00N 29°43' W 095°14'0 0.0
2017-Sep-23 20:27N 29°43' W 095°14'0 0.0
2017-Sep-23 20:00N 29°43' W 095°14'0 0.0
2017-Sep-22 01:58N 29°43' W 095°14'0 0.0
2017-Sep-22 01:28N 29°43' W 095°14'0 0.0
2017-Sep-22 00:55N 29°43' W 095°14'0 0.0
2017-Sep-22 00:22N 29°43' W 095°14'0 0.0
2017-Sep-21 23:58N 29°43' W 095°14'0 0.0
2017-Sep-21 23:25N 29°43' W 095°14'0 0.0
2017-Sep-21 22:58N 29°43' W 095°14'0 0.0
2017-Sep-21 22:28N 29°43' W 095°14'0 0.0
2017-Sep-21 21:58N 29°43' W 095°14'0 0.0
2017-Sep-21 21:28N 29°43' W 095°14'0 0.0
2017-Sep-21 20:58N 29°43' W 095°14'0 0.0
2017-Sep-21 20:28N 29°43' W 095°14'0 0.0
2017-Sep-21 19:58N 29°43' W 095°14'0 0.0
2017-Sep-21 19:28N 29°43' W 095°14'0 0.0
2017-Sep-21 18:58N 29°43' W 095°14'0 0.0
2017-Sep-21 18:28N 29°43' W 095°14'0 0.0
2017-Sep-21 17:58N 29°43' W 095°14'0 0.0
2017-Sep-21 17:28N 29°43' W 095°14'0 0.0
2017-Sep-21 16:58N 29°43' W 095°14'0 0.0
2017-Sep-21 16:28N 29°43' W 095°14'0 0.0
2017-Sep-21 15:58N 29°43' W 095°14'0 0.0
2017-Sep-21 15:22N 29°43' W 095°14'0 0.0
2017-Sep-21 14:58N 29°43' W 095°14'0 0.0
2017-Sep-21 14:28N 29°43' W 095°14'0 0.0
2017-Sep-21 13:58N 29°43' W 095°14'0 0.0
2017-Sep-21 13:28N 29°43' W 095°14'0 0.0
2017-Sep-21 12:55N 29°43' W 095°14'0 0.0
2017-Sep-21 12:25N 29°43' W 095°14'0 0.0
2017-Sep-21 11:59N 29°43' W 095°14'0 0.0
2017-Sep-21 11:31N 29°43' W 095°14'0 0.0
2017-Sep-21 10:59N 29°43' W 095°14'0 0.0
2017-Sep-21 10:26N 29°43' W 095°14'0 0.0
2017-Sep-21 09:59N 29°43' W 095°14'0 0.0
2017-Sep-21 09:29N 29°43' W 095°14'0 0.0
2017-Sep-21 08:59N 29°43' W 095°14'0 0.0
2017-Sep-21 08:28N 29°43' W 095°14'0 0.0
2017-Sep-21 08:00N 29°43' W 095°14'0 0.0
2017-Sep-21 07:30N 29°43' W 095°14'0 0.0
2017-Sep-21 06:57N 29°43' W 095°14'0 0.0
2017-Sep-21 06:30N 29°43' W 095°14'0 0.0
2017-Sep-21 05:56N 29°43' W 095°14'0 0.0
2017-Sep-21 05:28N 29°43' W 095°14'0 0.0
2017-Sep-21 04:55N 29°43' W 095°14'0 0.4
2017-Sep-21 04:29N 29°43' W 095°14'1 3.0
2017-Sep-21 04:00N 29°44' W 095°13'2 0.3
2017-Sep-20 20:20N 29°45' W 095°11'0 0.0
2017-Sep-20 19:11N 29°45' W 095°11'0 0.0
2017-Sep-20 18:47N 29°45' W 095°11'0 0.0
2017-Sep-20 18:23N 29°45' W 095°11'0 0.0
2017-Sep-20 17:44N 29°45' W 095°11'0 0.0
2017-Sep-20 15:47N 29°45' W 095°11'0 0.0
2017-Sep-20 14:41N 29°45' W 095°11'0 0.0
2017-Sep-20 13:56N 29°45' W 095°11'0 0.0
2017-Sep-20 11:59N 29°45' W 095°11'0 0.0
2017-Sep-20 10:32N 29°45' W 095°11'0 0.0
2017-Sep-20 10:26N 29°45' W 095°11'0 0.0
2017-Sep-20 09:56N 29°45' W 095°11'0 0.0
2017-Sep-20 07:32N 29°45' W 095°11'0 0.0
2017-Sep-20 07:23N 29°45' W 095°11'0 0.0
2017-Sep-20 06:35N 29°45' W 095°11'0 0.0
2017-Sep-20 06:05N 29°45' W 095°11'0 0.0
2017-Sep-20 03:17N 29°45' W 095°11'0 0.0
2017-Sep-20 02:41N 29°45' W 095°11'0 0.0
2017-Sep-20 02:11N 29°45' W 095°11'0 0.0
2017-Sep-20 01:53N 29°45' W 095°11'0 0.0
2017-Sep-19 21:35N 29°45' W 095°11'0 0.0
2017-Sep-19 17:41N 29°45' W 095°11'0 0.0
2017-Sep-19 17:29N 29°45' W 095°11'0 0.0
2017-Sep-19 16:56N 29°45' W 095°11'0 0.0
2017-Sep-19 16:29N 29°45' W 095°11'0 0.0
2017-Sep-19 15:56N 29°45' W 095°11'0 0.0
2017-Sep-19 15:29N 29°45' W 095°11'0 0.0
2017-Sep-19 14:50N 29°45' W 095°11'0 0.0
2017-Sep-19 10:59N 29°45' W 095°11'0 0.0
2017-Sep-19 05:23N 29°45' W 095°11'0 0.0
2017-Sep-19 04:56N 29°45' W 095°11'0 0.0
2017-Sep-19 03:41N 29°45' W 095°11'0 0.0
2017-Sep-19 03:23N 29°45' W 095°11'0 0.0
2017-Sep-19 02:59N 29°45' W 095°11'0 0.0
2017-Sep-19 02:29N 29°45' W 095°11'0 0.0
2017-Sep-19 01:59N 29°45' W 095°11'0 0.0
2017-Sep-19 01:20N 29°45' W 095°11'0 0.0
2017-Sep-19 00:59N 29°45' W 095°11'0 0.0
2017-Sep-19 00:29N 29°45' W 095°11'0 0.0
2017-Sep-18 23:59N 29°45' W 095°11'0 0.0
2017-Sep-18 23:20N 29°45' W 095°11'0 0.0
2017-Sep-18 22:59N 29°45' W 095°11'0 0.0
2017-Sep-18 22:17N 29°45' W 095°11'0 0.0
2017-Sep-18 21:59N 29°45' W 095°11'0 0.0
2017-Sep-18 21:29N 29°45' W 095°11'0 0.0
2017-Sep-18 20:59N 29°45' W 095°11'0 0.0
2017-Sep-18 20:29N 29°45' W 095°11'0 0.0
2017-Sep-18 19:50N 29°45' W 095°11'0 0.0
2017-Sep-18 19:26N 29°45' W 095°11'0 0.0
2017-Sep-18 18:53N 29°45' W 095°11'0 0.0
2017-Sep-18 18:23N 29°45' W 095°11'0 0.0
2017-Sep-18 17:56N 29°45' W 095°11'0 0.0
2017-Sep-18 17:23N 29°45' W 095°11'0 0.0
2017-Sep-18 16:59N 29°45' W 095°11'0 0.0
2017-Sep-18 16:26N 29°45' W 095°11'0 0.0
2017-Sep-18 15:59N 29°45' W 095°11'0 0.0
2017-Sep-18 15:29N 29°45' W 095°11'0 0.0
2017-Sep-18 14:59N 29°45' W 095°11'0 0.0
2017-Sep-18 14:29N 29°45' W 095°11'0 0.0
2017-Sep-18 09:06N 29°45' W 095°11'0 0.0
2017-Sep-18 08:48N 29°45' W 095°11'0 0.0
2017-Sep-18 08:24N 29°45' W 095°11'0 0.0
2017-Sep-18 08:00N 29°45' W 095°11'0 0.0
2017-Sep-18 07:28N 29°45' W 095°11'0 0.0
2017-Sep-18 06:49N 29°45' W 095°11'0 0.0
2017-Sep-18 04:48N 29°45' W 095°11'0 0.7
2017-Sep-18 04:30N 29°45' W 095°10'3 5.4
2017-Sep-18 04:00N 29°44' W 095°07'3 5.9
2017-Sep-18 03:29N 29°45' W 095°04'3 7.4
2017-Sep-18 03:00N 29°43' W 095°01'4 8.5
2017-Sep-18 02:30N 29°40' W 094°58'611.7
2017-Sep-18 02:01N 29°34' W 094°56'611.9
2017-Sep-18 01:31N 29°29' W 094°52'611.5
2017-Sep-18 01:01N 29°24' W 094°49'21 1.0
2017-Sep-17 03:18N 29°16' W 094°27'0 0.0
2017-Sep-17 02:57N 29°16' W 094°27'0 0.0
2017-Sep-17 02:24N 29°16' W 094°27'0 0.0
2017-Sep-17 01:54N 29°16' W 094°27'0 0.0
2017-Sep-17 01:27N 29°16' W 094°27'0 0.0
2017-Sep-17 00:57N 29°16' W 094°27'0 0.0
2017-Sep-16 06:06N 29°16' W 094°27'0 0.0
2017-Sep-16 05:45N 29°16' W 094°27'0 0.0
2017-Sep-16 05:30N 29°16' W 094°27'  

Dump ship's entire track history